Data for 03/28/2007

Time Sea-Level Adjusted Pressure Absolute Pressure Temperature Relative Humidity Dew Point   
(mb) (inHg) (mb) (inHg) (C) (F) (%) (C) (F)
00:05 1011 29.85 840 24.81 1 33.8 97 0.6 33
00:10 1011 29.85 840 24.81 0.8 33.5 97 0.4 32.8
00:15 1011 29.85 840 24.81 0.8 33.5 97 0.4 32.8
00:20 1011 29.85 840 24.81 0.9 33.6 97 0.5 33
00:25 1011 29.85 840 24.81 1.1 34 96 0.6 33.1
00:30 1011 29.85 840 24.81 1.1 34 96 0.6 33.1
00:35 1011 29.85 840 24.81 1.1 33.9 97 0.6 33
00:40 1011 29.85 840 24.81 1.1 33.9 97 0.6 33.1
00:45 1011 29.85 840 24.81 1.2 34.2 97 0.7 33.3
00:50 1011 29.85 840 24.81 1.3 34.3 97 0.8 33.5
00:55 1011 29.85 840 24.81 1.3 34.3 97 0.8 33.4
01:00 1011 29.85 840 24.81 1.1 34 97 0.7 33.2
01:05 1011 29.85 840 24.81 1.1 34 97 0.6 33.1
01:10 1011 29.85 840 24.81 1.1 34 97 0.6 33.1
01:15 1011 29.85 840 24.81 1.2 34.1 97 0.7 33.3
01:20 1011 29.85 840 24.81 1.2 34.2 96 0.6 33.2
01:25 1011 29.85 841 24.83 1.2 34.1 96 0.5 33
01:30 1012 29.88 841 24.83 1 33.8 96 0.5 32.8
01:35 1012 29.88 841 24.83 1 33.8 97 0.5 32.9
01:40 1012 29.88 841 24.83 1 33.9 97 0.6 33
01:45 1012 29.88 841 24.83 1.2 34.1 96 0.6 33.1
01:50 1012 29.88 841 24.83 1.3 34.4 96 0.8 33.4
01:55 1012 29.88 841 24.83 1.3 34.4 96 0.7 33.3
02:00 1012 29.88 841 24.83 1.3 34.3 96 0.6 33.1
02:05 1012 29.88 841 24.83 1.2 34.2 96 0.6 33.1
02:10 1012 29.88 841 24.83 1.2 34.2 96 0.6 33.1
02:15 1012 29.88 841 24.83 1.2 34.2 95 0.5 33
02:20 1012 29.88 841 24.83 1.1 34 95 0.4 32.8
02:25 1012 29.88 841 24.83 1 33.8 96 0.4 32.7
02:30 1012 29.88 841 24.83 0.9 33.6 96 0.3 32.6
02:35 1012 29.88 842 24.86 0.8 33.4 96 0.3 32.5
02:40 1013 29.91 842 24.86 0.7 33.2 97 0.2 32.3
02:45 1013 29.91 842 24.86 0.6 33.1 97 0.2 32.3
02:50 1013 29.91 842 24.86 0.6 33.1 97 0.2 32.4
02:55 1013 29.91 842 24.86 0.6 33.1 97 0.2 32.4
03:00 1012 29.88 842 24.86 0.5 32.9 97 0.1 32.3
03:05 1013 29.91 842 24.86 0.4 32.8 98 0.1 32.2
03:10 1013 29.91 842 24.86 0.4 32.7 98 0.1 32.2
03:15 1013 29.91 842 24.86 0.5 32.9 98 0.2 32.3
03:20 1013 29.91 842 24.86 0.4 32.8 98 0.1 32.2
03:25 1013 29.91 842 24.86 0.4 32.7 98 0.1 32.2
03:30 1013 29.91 842 24.86 0.4 32.7 98 0.1 32.2
03:35 1013 29.91 842 24.86 0.5 32.9 98 0.2 32.3
03:40 1013 29.91 843 24.89 0.4 32.8 98 0.1 32.2
03:45 1013 29.91 843 24.89 0.4 32.8 98 0.1 32.2
03:50 1013 29.91 842 24.86 0.4 32.7 98 0 32
03:55 1013 29.91 842 24.86 0.4 32.7 98 0.1 32.1
04:00 1013 29.91 843 24.89 0.4 32.7 97 0 32
04:05 1013 29.91 842 24.86 0.4 32.7 97 -0.1 31.9
04:10 1013 29.91 843 24.89 0.4 32.7 97 -0.1 31.9
04:15 1013 29.91 843 24.89 0.4 32.7 97 -0.1 31.8
04:20 1013 29.91 842 24.86 0.4 32.7 96 -0.1 31.8
04:25 1013 29.91 842 24.86 0.4 32.7 96 -0.2 31.7
04:30 1014 29.94 843 24.89 0.4 32.7 96 -0.2 31.7
04:35 1014 29.94 843 24.89 0.3 32.6 96 -0.3 31.5
04:40 1014 29.94 843 24.89 0.4 32.7 96 -0.2 31.6
04:45 1014 29.94 843 24.89 0.4 32.7 95 -0.3 31.5
04:50 1014 29.94 843 24.89 0.3 32.6 96 -0.3 31.4
04:55 1014 29.94 843 24.89 0.3 32.6 96 -0.3 31.5
05:00 1014 29.94 843 24.89 0.3 32.6 96 -0.3 31.5
05:05 1014 29.94 843 24.89 0.3 32.5 96 -0.4 31.3
05:10 1014 29.94 844 24.92 0.2 32.4 96 -0.4 31.3
05:15 1014 29.94 844 24.92 0.3 32.5 95 -0.4 31.3
05:20 1015 29.97 844 24.92 0.2 32.4 96 -0.4 31.3
05:25 1015 29.97 844 24.92 0.2 32.3 96 -0.5 31.2
05:30 1015 29.97 844 24.92 0.1 32.2 96 -0.5 31.1
05:35 1015 29.97 844 24.92 0.1 32.1 96 -0.5 31.1
05:40 1015 29.97 844 24.92 0 32 96 -0.5 31.1
05:45 1015 29.97 844 24.92 -0 32 96 -0.6 31
05:50 1015 29.97 844 24.92 -0.1 31.8 96 -0.6 30.9
05:55 1015 29.97 844 24.92 -0.1 31.8 97 -0.6 30.9
06:00 1015 29.97 844 24.92 -0.2 31.6 96 -0.7 30.7
06:05 1015 29.97 845 24.95 -0.2 31.6 96 -0.7 30.7
06:10 1015 29.97 845 24.95 -0.2 31.6 96 -0.7 30.7
06:15 1015 29.97 845 24.95 -0.3 31.5 97 -0.7 30.7
06:20 1016 30 845 24.95 -0.3 31.5 97 -0.8 30.6
06:25 1016 30 845 24.95 -0.3 31.5 97 -0.7 30.7
06:30 1016 30 845 24.95 -0.3 31.5 97 -0.7 30.7
06:35 1016 30 845 24.95 -0.4 31.3 97 -0.9 30.5
06:40 1016 30 845 24.95 -0.3 31.4 97 -0.8 30.6
06:45 1016 30 845 24.95 -0.3 31.4 97 -0.8 30.6
06:50 1016 30 845 24.95 -0.3 31.4 97 -0.8 30.5
06:55 1016 30 845 24.95 -0.3 31.4 97 -0.8 30.5
07:00 1016 30 845 24.95 -0.3 31.4 96 -0.9 30.4
07:05 1016 30 845 24.95 -0.4 31.3 96 -0.9 30.3
07:10 1016 30 845 24.95 -0.3 31.4 96 -0.9 30.4
07:15 1016 30 845 24.95 -0.4 31.3 96 -0.9 30.3
07:20 1016 30 846 24.98 -0.4 31.2 96 -1 30.3
07:25 1016 30 846 24.98 -0.5 31.2 96 -1 30.2
07:30 1017 30.03 846 24.98 -0.5 31.1 96 -1 30.2
07:35 1017 30.03 846 24.98 -0.5 31.1 96 -1.1 30.1
07:40 1017 30.03 846 24.98 -0.6 31 96 -1.1 30
07:45 1017 30.03 846 24.98 -0.6 30.8 96 -1.2 29.9
07:50 1017 30.03 846 24.98 -0.6 30.8 97 -1.1 30
07:55 1017 30.03 847 25.01 -0.7 30.8 96 -1.2 29.9
08:00 1017 30.03 847 25.01 -0.6 30.9 96 -1.2 29.9
08:05 1018 30.06 847 25.01 -0.7 30.7 96 -1.2 29.8
08:10 1018 30.06 847 25.01 -0.8 30.6 96 -1.3 29.6
08:15 1018 30.06 847 25.01 -0.8 30.5 96 -1.4 29.5
08:20 1018 30.06 847 25.01 -0.9 30.4 96 -1.4 29.4
08:25 1018 30.06 847 25.01 -1 30.3 96 -1.5 29.3
08:30 1018 30.06 847 25.01 -1 30.3 96 -1.5 29.3
08:35 1018 30.06 847 25.01 -1 30.3 96 -1.5 29.2
08:40 1018 30.06 848 25.04 -1 30.2 96 -1.6 29.2
08:45 1019 30.09 848 25.04 -1.1 30.1 96 -1.6 29.2
08:50 1019 30.09 848 25.04 -1 30.1 96 -1.6 29.2
08:55 1019 30.09 848 25.04 -1.1 30.1 96 -1.6 29.1
09:00 1019 30.09 848 25.04 -1.1 30.1 96 -1.6 29.2
09:05 1019 30.09 848 25.04 -1.1 30.1 96 -1.6 29.1
09:10 1019 30.09 848 25.04 -1.1 30 96 -1.7 29
09:15 1019 30.09 848 25.04 -1.2 29.8 96 -1.7 28.9
09:20 1019 30.09 848 25.04 -1.1 29.9 96 -1.7 29
09:25 1019 30.09 849 25.07 -1.2 29.8 96 -1.8 28.7
09:30 1019 30.09 849 25.07 -1.2 29.8 96 -1.8 28.8
09:35 1019 30.09 849 25.07 -1.2 29.8 96 -1.8 28.8
09:40 1020 30.12 849 25.07 -1.2 29.9 96 -1.8 28.8
09:45 1020 30.12 849 25.07 -1.2 29.9 96 -1.8 28.8
09:50 1020 30.12 849 25.07 -1.1 30.1 95 -1.7 28.9
09:55 1020 30.12 849 25.07 -1 30.2 95 -1.7 28.9
10:00 1020 30.12 849 25.07 -0.9 30.3 94 -1.7 28.9
10:05 1020 30.12 849 25.07 -0.8 30.5 94 -1.8 28.8
10:10 1020 30.12 849 25.07 -0.7 30.7 93 -1.6 29.1
10:15 1020 30.12 849 25.07 -0.6 30.9 93 -1.6 29.2
10:20 1020 30.12 849 25.07 -0.6 31 93 -1.6 29.1
10:25 1020 30.12 849 25.07 -0.5 31.1 92 -1.7 28.9
10:30 1020 30.12 849 25.07 -0.6 30.9 92 -1.8 28.7
10:35 1020 30.12 849 25.07 -0.7 30.8 92 -1.9 28.6
10:40 1020 30.12 849 25.07 -0.5 31.1 91 -1.8 28.7
10:45 1020 30.12 849 25.07 -0.5 31.1 91 -1.8 28.8
10:50 1020 30.12 849 25.07 -0.4 31.3 91 -1.7 29
10:55 1020 30.12 849 25.07 -0.2 31.6 90 -1.6 29
11:00 1020 30.12 849 25.07 -0.4 31.3 90 -1.8 28.7
11:05 1020 30.12 850 25.1 -0.3 31.5 89 -1.8 28.7
11:10 1020 30.12 850 25.1 -0.2 31.6 90 -1.7 28.9
11:15 1020 30.12 850 25.1 -0.2 31.6 88 -2 28.4
11:20 1021 30.15 850 25.1 -0.3 31.5 88 -2 28.4
11:25 1021 30.15 850 25.1 -0.1 31.7 87 -2.1 28.3
11:30 1021 30.15 850 25.1 -0.2 31.7 85 -2.3 27.8
11:35 1021 30.15 850 25.1 -0.3 31.5 85 -2.5 27.5
11:40 1021 30.15 850 25.1 -0.2 31.6 85 -2.5 27.5
11:45 1021 30.15 850 25.1 -0.1 31.8 85 -2.4 27.8
11:50 1021 30.15 850 25.1 -0.2 31.7 83 -2.7 27.2
11:55 1021 30.15 850 25.1 -0.3 31.5 84 -2.7 27.1
12:00 1021 30.15 850 25.1 -0.3 31.5 84 -2.7 27.2
12:05 1021 30.15 850 25.1 -0.2 31.6 83 -2.7 27.1
12:10 1021 30.15 850 25.1 -0.2 31.6 84 -2.6 27.4
12:15 1021 30.15 850 25.1 -0.1 31.8 83 -2.6 27.3
12:20 1021 30.15 850 25.1 -0.1 31.8 82 -2.8 26.9
12:25 1021 30.15 851 25.13 -0.1 31.8 83 -2.7 27.1
12:30 1021 30.15 851 25.13 -0.1 31.8 82 -2.8 27
12:35 1021 30.15 851 25.13 -0.3 31.5 83 -2.9 26.9
12:40 1022 30.18 851 25.13 -0.3 31.5 84 -2.7 27.1
12:45 1022 30.18 851 25.13 -0.4 31.3 84 -2.7 27.1
12:50 1022 30.18 851 25.13 -0.4 31.3 85 -2.7 27.2
12:55 1022 30.18 851 25.13 -0.4 31.3 84 -2.7 27.1
13:00 1022 30.18 851 25.13 -0.5 31.2 84 -2.8 27
13:05 1022 30.18 851 25.13 -0.6 30.9 85 -2.9 26.8
13:10 1022 30.18 851 25.13 -0.7 30.8 84 -3.1 26.5
13:15 1022 30.18 851 25.13 -0.6 30.9 84 -3 26.5
13:20 1022 30.18 851 25.13 -0.2 31.7 81 -3.1 26.4
13:25 1022 30.18 851 25.13 -0 32 79 -3.2 26.3
13:30 1022 30.18 851 25.13 0.1 32.2 78 -3.3 26
13:35 1022 30.18 851 25.13 -0 32 77 -3.5 25.7
13:40 1022 30.18 852 25.16 0 32 78 -3.4 25.8
13:45 1022 30.18 852 25.16 0.4 32.7 76 -3.4 25.9
13:50 1022 30.18 852 25.16 0.4 32.7 76 -3.4 25.9
13:55 1022 30.18 852 25.16 0.4 32.8 77 -3.2 26.3
14:00 1022 30.18 852 25.16 0.6 33 74 -3.6 25.5
14:05 1023 30.21 852 25.16 0.6 33.1 75 -3.4 25.9
14:10 1023 30.21 852 25.16 0.6 33.1 72 -4 24.9
14:15 1023 30.21 852 25.16 0.7 33.2 72 -3.9 25
14:20 1023 30.21 852 25.16 0.6 33.1 72 -3.9 25
14:25 1023 30.21 852 25.16 0.7 33.2 70 -4.2 24.5
14:30 1023 30.21 852 25.16 0.8 33.5 70 -4.1 24.7
14:35 1023 30.21 852 25.16 0.9 33.6 66 -4.7 23.6
14:40 1023 30.21 852 25.16 1.1 34 64 -4.9 23.2
14:45 1023 30.21 852 25.16 1.3 34.3 64 -4.9 23.2
14:50 1023 30.21 852 25.16 1.2 34.2 63 -5.1 22.9
14:55 1023 30.21 852 25.16 1.3 34.3 62 -5.1 22.7
15:00 1023 30.21 852 25.16 1.3 34.4 63 -5 23
15:05 1023 30.21 852 25.16 1.5 34.6 63 -4.9 23.2
15:10 1023 30.21 852 25.16 1.3 34.3 60 -5.6 21.9
15:15 1023 30.21 852 25.16 1.2 34.2 60 -5.6 21.9
15:20 1023 30.21 852 25.16 1.2 34.2 61 -5.5 22.1
15:25 1023 30.21 853 25.19 1.2 34.2 62 -5.1 22.8
15:30 1023 30.21 853 25.19 1.4 34.4 61 -5.3 22.4
15:35 1024 30.24 853 25.19 1.1 34 61 -5.7 21.8
15:40 1024 30.24 853 25.19 1.2 34.2 62 -5.3 22.4
15:45 1024 30.24 853 25.19 1.3 34.4 60 -5.5 22.1
15:50 1024 30.24 853 25.19 1.3 34.3 62 -5.2 22.7
15:55 1024 30.24 853 25.19 1.4 34.6 60 -5.4 22.2
16:00 1024 30.24 853 25.19 1.6 34.8 61 -5.3 22.5
16:05 1024 30.24 853 25.19 1.8 35.2 60 -5.1 22.9
16:10 1024 30.24 853 25.19 1.7 35.1 61 -5 23
16:15 1024 30.24 853 25.19 1.7 35 61 -5.1 22.8
16:20 1024 30.24 853 25.19 1.5 34.6 61 -5.3 22.5
16:25 1024 30.24 853 25.19 1.6 34.8 60 -5.4 22.3
16:30 1024 30.24 853 25.19 1.7 35.1 59 -5.4 22.3
16:35 1024 30.24 853 25.19 1.7 35 59 -5.4 22.3
16:40 1024 30.24 854 25.22 1.8 35.2 59 -5.3 22.4
16:45 1024 30.24 854 25.22 1.7 35 56 -6.2 20.9
16:50 1025 30.27 854 25.22 1.4 34.5 58 -6 21.3
16:55 1025 30.27 854 25.22 1 33.8 55 -7 19.4
17:00 1025 30.27 854 25.22 0.9 33.6 55 -7.2 19
17:05 1025 30.27 854 25.22 1 33.8 56 -6.9 19.6
17:10 1025 30.27 854 25.22 0.9 33.6 55 -7.2 19
17:15 1025 30.27 854 25.22 1 33.8 57 -6.6 20.2
17:20 1025 30.27 854 25.22 1.5 34.6 54 -6.9 19.6
17:25 1025 30.27 854 25.22 1.3 34.3 53 -7.3 18.8
17:30 1025 30.27 854 25.22 1.1 33.9 53 -7.4 18.7
17:35 1025 30.27 854 25.22 0.9 33.6 52 -7.8 18
17:40 1025 30.27 855 25.25 1 33.7 55 -7.1 19.2
17:45 1025 30.27 855 25.25 1.3 34.4 51 -7.6 18.3
17:50 1026 30.3 855 25.25 1.2 34.2 53 -7.4 18.7
17:55 1026 30.3 855 25.25 1.3 34.4 52 -7.5 18.5
18:00 1026 30.3 855 25.25 1.3 34.4 51 -7.6 18.3
18:05 1026 30.3 855 25.25 1.2 34.2 52 -7.6 18.3
18:10 1026 30.3 855 25.25 1.2 34.1 52 -7.6 18.3
18:15 1026 30.3 855 25.25 1.1 34 53 -7.5 18.5
18:20 1026 30.3 855 25.25 1.2 34.2 52 -7.6 18.3
18:25 1026 30.3 855 25.25 1.2 34.2 53 -7.3 18.9
18:30 1026 30.3 855 25.25 1.1 34 52 -7.6 18.3
18:35 1026 30.3 855 25.25 1.1 34.1 51 -7.8 17.9
18:40 1026 30.3 855 25.25 1.2 34.2 51 -7.7 18.1
18:45 1026 30.3 855 25.25 1.1 34 52 -7.8 18
18:50 1026 30.3 856 25.28 1 33.7 53 -7.6 18.3
18:55 1026 30.3 856 25.28 1 33.8 54 -7.3 18.8
19:00 1026 30.3 856 25.28 1 33.8 52 -7.7 18.1
19:05 1027 30.33 856 25.28 1 33.8 54 -7.3 18.8
19:10 1027 30.33 856 25.28 1.2 34.2 54 -7.2 19
19:15 1027 30.33 856 25.28 1.2 34.2 53 -7.3 18.9
19:20 1027 30.33 856 25.28 1.1 34 55 -6.8 19.7
19:25 1027 30.33 856 25.28 1.1 33.9 53 -7.4 18.7
19:30 1027 30.33 856 25.28 1 33.7 54 -7.4 18.6
19:35 1027 30.33 856 25.28 1 33.8 55 -7 19.3
19:40 1027 30.33 856 25.28 1 33.7 56 -6.9 19.5
19:45 1027 30.33 856 25.28 1 33.8 56 -6.9 19.5
19:50 1027 30.33 856 25.28 1 33.8 55 -7.1 19.2
19:55 1027 30.33 856 25.28 1 33.8 56 -6.8 19.7
20:00 1027 30.33 856 25.28 0.6 33.1 57 -6.9 19.5
20:05 1027 30.33 856 25.28 0.5 33 56 -7.2 19.1
20:10 1027 30.33 856 25.28 0.4 32.6 58 -7 19.4
20:15 1027 30.33 856 25.28 0.4 32.7 57 -7.2 19
20:20 1027 30.33 856 25.28 0.1 32.2 58 -7.2 19
20:25 1027 30.33 857 25.31 -0 31.9 57 -7.5 18.5
20:30 1027 30.33 857 25.31 0 32 58 -7.2 19.1
20:35 1028 30.36 857 25.31 0.1 32.2 59 -7.1 19.3
20:40 1028 30.36 857 25.31 0.3 32.6 57 -7.1 19.2
20:45 1028 30.36 857 25.31 0.4 32.7 57 -7.1 19.2
20:50 1028 30.36 857 25.31 0.4 32.7 56 -7.5 18.6
20:55 1028 30.36 857 25.31 0.3 32.6 57 -7.2 19
21:00 1028 30.36 857 25.31 0.3 32.6 55 -7.8 18
21:05 1028 30.36 857 25.31 0.3 32.5 56 -7.5 18.5
21:10 1028 30.36 857 25.31 -0.2 31.7 67 -5.6 21.9
21:15 1028 30.36 857 25.31 -1.3 29.6 73 -5.6 22
21:20 1028 30.36 857 25.31 -1.9 28.6 75 -5.8 21.5
21:25 1028 30.36 857 25.31 -2 28.4 74 -6 21.2
21:30 1028 30.36 858 25.34 -2.1 28.2 75 -6 21.1
21:35 1028 30.36 858 25.34 -2 28.3 75 -5.9 21.3
21:40 1029 30.39 858 25.34 -2.3 27.8 75 -6.1 21
21:45 1029 30.39 858 25.34 -2.3 27.9 75 -6.2 20.9
21:50 1029 30.39 858 25.34 -2.4 27.7 76 -6 21.1
21:55 1029 30.39 858 25.34 -2.3 27.8 75 -6.2 20.9
22:00 1029 30.39 858 25.34 -2.5 27.6 76 -6.2 20.9
22:05 1029 30.39 858 25.34 -2.8 27 77 -6.3 20.7
22:10 1029 30.39 858 25.34 -2.8 27 76 -6.4 20.5
22:15 1029 30.39 858 25.34 -2.9 26.7 77 -6.4 20.6
22:20 1029 30.39 858 25.34 -3 26.6 76 -6.6 20.1
22:25 1029 30.39 858 25.34 -2.8 26.9 76 -6.5 20.2
22:30 1029 30.39 858 25.34 -2.7 27.2 73 -6.9 19.6
22:35 1029 30.39 858 25.34 -2.9 26.8 71 -7.5 18.5
22:40 1029 30.39 858 25.34 -2.8 27 70 -7.5 18.6
22:45 1029 30.39 858 25.34 -2.4 27.7 69 -7.4 18.7
22:50 1029 30.39 858 25.34 -2.5 27.6 73 -6.7 19.9
22:55 1029 30.39 858 25.34 -3.6 25.5 80 -6.6 20.1
23:00 1029 30.39 858 25.34 -4.1 24.6 81 -7 19.4
23:05 1029 30.39 858 25.34 -4.3 24.3 80 -7.2 19
23:10 1029 30.39 858 25.34 -4.1 24.6 78 -7.4 18.6
23:15 1029 30.39 858 25.34 -4.1 24.7 78 -7.4 18.6
23:20 1029 30.39 859 25.37 -4.3 24.3 79 -7.4 18.7
23:25 1029 30.39 859 25.37 -4.4 24 80 -7.4 18.7
23:30 1029 30.39 859 25.37 -4.4 24 79 -7.5 18.4
23:35 1030 30.42 859 25.37 -4.4 24.1 78 -7.7 18.2
23:40 1030 30.42 859 25.37 -4.2 24.4 77 -7.7 18.1
23:45 1030 30.42 859 25.37 -4.1 24.6 76 -7.8 17.9
23:50 1030 30.42 859 25.37 -4.1 24.6 76 -7.7 18.2
23:55 1030 30.42 859 25.37 -4.1 24.7 74 -8 17.5
24:00 1030 30.42 859 25.37 -3.7 25.3 72 -8 17.6